ADDS METAR Data INFO
IDs: Format: Raw Decoded Include TAF

Data at: 1509 UTC 23 Oct 2017

KESC 231456Z AUTO 00000KT 1/4SM FG OVC003 07/07 A2986 RMK AO2 SLP136 T00670067 58021
KESC 231356Z AUTO 30003KT 1/4SM FG OVC003 07/07 A2989 RMK AO2 SLP147 T00670067
KESC 231354Z AUTO 31003KT 1/4SM FG OVC003 07/07 A2989 RMK AO2
KESC 231335Z AUTO 00000KT 1/2SM FG OVC003 06/06 A2989 RMK AO2
KESC 231256Z AUTO 27003KT 1/4SM FG OVC003 06/06 A2992 RMK AO2 SLP157 T00610061
KESC 231218Z AUTO 00000KT 1/4SM FG OVC003 06/06 A2993 RMK AO2
KESC 231156Z AUTO 26003KT 1/2SM FG OVC003 06/06 A2993 RMK AO2 SLP160 70036 T00610061 10067 20056 58004
KESC 231111Z AUTO 00000KT 1/2SM FG OVC003 06/06 A2993 RMK AO2
KESC 231103Z AUTO 00000KT 3/4SM BR OVC003 06/06 A2994 RMK AO2
KESC 231056Z AUTO 24003KT 1 1/4SM BR OVC003 06/06 A2994 RMK AO2 SLP164 T00610061
KESC 231053Z AUTO 23004KT 3/4SM BR OVC003 06/06 A2994 RMK AO2
KESC 231037Z AUTO 00000KT 1SM BR OVC003 06/06 A2994 RMK AO2
KESC 231002Z AUTO 00000KT 3/4SM BR OVC003 06/06 A2994 RMK AO2
KESC 230956Z AUTO 00000KT 1 1/4SM BR OVC003 07/06 A2994 RMK AO2 SLP164 T00670061
KESC 230942Z AUTO 00000KT 3/4SM BR OVC003 07/06 A2995 RMK AO2
KESC 230933Z AUTO 00000KT 1 3/4SM BR OVC003 07/06 A2995 RMK AO2
KESC 230856Z AUTO 00000KT 6SM BR OVC003 07/06 A2995 RMK AO2 SLP165 T00670061 58008
KESC 230756Z AUTO 00000KT 9SM OVC003 07/07 A2996 RMK AO2 SLP170 T00670067
KESC 230656Z AUTO 29005KT 4SM BR OVC003 07/07 A2997 RMK AO2 SLP173 T00670067
KESC 230650Z AUTO 28007KT 3SM BR OVC003 07/07 A2997 RMK AO2
KESC 230645Z AUTO 29008KT 1 3/4SM BR OVC003 07/07 A2996 RMK AO2
KESC 230634Z AUTO 28007KT 1SM BR OVC003 07/07 A2997 RMK AO2
KESC 230609Z AUTO 28007KT 1/2SM FG BKN003 06/06 A2997 RMK AO2
KESC 230600Z AUTO 28006KT 3/4SM BR BKN003 06/06 A2997 RMK AO2
KESC 230556Z AUTO 28005KT 1 3/4SM BR SCT003 06/06 A2997 RMK AO2 VIS 3/4V5 SLP174 60001 T00560056 10106 20056 58011
KESC 230554Z AUTO 29006KT 2 1/2SM BR SCT003 06/06 A2997 RMK AO2 VIS 1V5
KESC 230539Z AUTO 27005KT 3SM BR CLR 06/06 A2997 RMK AO2
KESC 230528Z AUTO 26004KT 1 3/4SM BR CLR 06/06 A2998 RMK AO2 VIS 3/4V5
KESC 230513Z AUTO 26003KT 3SM BR CLR 07/07 A2998 RMK AO2
KESC 230504Z AUTO 25004KT 1 1/4SM BR CLR 07/07 A2998 RMK AO2 VIS 3/4V4
KESC 230456Z AUTO 25003KT 2 1/2SM BR CLR 07/07 A2998 RMK AO2 VIS 1V5 SLP179 T00670067 401610067
KESC 230445Z AUTO 26003KT 1 1/2SM BR CLR 07/07 A2998 RMK AO2 VIS 1/2V5
KESC 230441Z AUTO 26003KT 3SM BR CLR 07/07 A2998 RMK AO2
KESC 230427Z AUTO 26004KT 1 3/4SM BR CLR 07/07 A2998 RMK AO2 VIS 3/4V5
KESC 230415Z AUTO 26004KT 4SM BR CLR 07/07 A2998 RMK AO2
KESC 230405Z AUTO 25004KT 2SM BR CLR 07/07 A2999 RMK AO2
KESC 230356Z AUTO 26003KT 1SM BR CLR 07/07 A2999 RMK AO2 VIS 3/4V2 1/2 SLP183 T00720072 TSNO
KESC 230350Z AUTO 26003KT 1 3/4SM BR CLR 07/07 A2999 RMK AO2 VIS 3/4V5
KESC 230256Z AUTO 25004KT 10SM CLR 09/08 A3000 RMK AO2 SLP185 60001 T00890083 50001
KESC 230156Z AUTO 25005KT 10SM OVC110 10/09 A3001 RMK AO2 RAE04 SLP187 P0000 T01000089
KESC 230056Z AUTO 24004KT 10SM -RA FEW026 OVC100 10/09 A3001 RMK AO2 SLP185 P0001 T01000094
KESC 222356Z AUTO 24004KT 10SM -RA OVC100 11/10 A3000 RMK AO2 SLP183 P0001 60008 T01060100 10117 20100 53015
KESC 222256Z AUTO 00000KT 10SM -RA FEW019 OVC100 11/09 A2996 RMK AO2 SLP168 P0005 T01060094
KESC 222156Z AUTO 23004KT 10SM -RA OVC075 11/10 A2997 RMK AO2 SLP171 P0001 T01060100
KESC 222056Z AUTO 24003KT 10SM -RA OVC060 11/09 A2995 RMK AO2 SLP167 P0000 60001 T01060094 53017 TSNO
KESC 221956Z AUTO 27003KT 10SM -RA OVC050 11/09 A2994 RMK AO2 RAE15B38 SLP162 P0000 T01060094
KESC 221856Z AUTO 31004KT 10SM -RA OVC042 11/10 A2991 RMK AO2 RAE35B52 SLP153 P0001 T01110100
KESC 221756Z AUTO 30007KT 10SM -RA OVC030 12/11 A2990 RMK AO2 WSHFT 1643 SLP149 P0012 60027 T01170106 10161 20117 53006
KESC 221716Z AUTO 29010KT 8SM -RA SCT009 SCT015 OVC021 13/11 A2990 RMK AO2 WSHFT 1643 P0002
KESC 221703Z AUTO 30010G18KT 8SM -RA BKN007 BKN010 OVC014 13/12 A2989 RMK AO2 WSHFT 1643 CIG 004V009 P0001
KESC 221656Z AUTO 29014KT 6SM -RA BR OVC007 14/13 A2989 RMK AO2 WSHFT 1641 CIG 004V012 SLP143 P0004 T01390128
KESC 221606Z AUTO 20007KT 10SM -RA OVC007 15/14 A2987 RMK AO2 CIG 004V010 P0000
KESC 221556Z AUTO 18007KT 10SM -RA BKN004 OVC009 15/14 A2988 RMK AO2 SLP139 P0005 T01500144
KESC 221521Z AUTO 18009G15KT 6SM -RA BR BKN009 BKN029 OVC050 14/14 A2987 RMK AO2 CIG 005V012 P0005
KESC 221519Z AUTO 18010KT 6SM RA BR SCT011 BKN029 OVC060 14/14 A2987 RMK AO2 P0005
KESC 221456Z AUTO 19010KT 9SM -RA BKN030 OVC041 14/14 A2988 RMK AO2 RAB1358 SLP141 P0006 60006 T01440139 53012
KESC 221356Z AUTO 19012G17KT 10SM BKN050 BKN100 16/13 A2987 RMK AO2 SLP136 T01560133
KESC 221256Z AUTO 19012KT 10SM CLR 16/13 A2986 RMK AO2 SLP132 T01560133
KESC 221156Z AUTO 18009KT 10SM CLR 15/13 A2985 RMK AO2 SLP130 T01500133 10161 20150 56008
KESC 221056Z AUTO 18011KT 10SM CLR 16/13 A2985 RMK AO2 SLP130 T01560133
KESC 220956Z AUTO 18008G16KT 10SM FEW038 16/13 A2986 RMK AO2 SLP133 T01560133
KESC 220856Z AUTO 18011G16KT 10SM OVC080 16/14 A2987 RMK AO2 SLP136 T01560139 58016
KESC 220756Z AUTO 18009KT 10SM BKN080 16/14 A2990 RMK AO2 SLP144 T01610139
KESC 220656Z AUTO 17007KT 10SM BKN080 16/14 A2990 RMK AO2 SLP146 T01560139
KESC 220556Z AUTO 18006KT 10SM FEW070 SCT085 16/14 A2992 RMK AO2 SLP152 T01560139 10167 20150 58001
KESC 220456Z AUTO 20009G15KT 10SM FEW085 16/13 A2993 RMK AO2 SLP154 T01610133 401780139
KESC 220356Z AUTO 19008KT 10SM SCT060 16/14 A2992 RMK AO2 SLP152 T01610139